sensor_id;sensor_type;location;lat;lon;timestamp;pressure;altitude;pressure_sealevel;temperature;humidity
26043;BME280;13818;52.156;5.382;2022-12-19T00:01:22;101504.75;;;0.81;100.00
26043;BME280;13818;52.156;5.382;2022-12-19T00:03:52;101493.41;;;0.86;100.00
26043;BME280;13818;52.156;5.382;2022-12-19T00:06:21;101488.16;;;0.86;100.00
26043;BME280;13818;52.156;5.382;2022-12-19T00:08:49;101495.19;;;0.90;100.00
26043;BME280;13818;52.156;5.382;2022-12-19T00:11:17;101490.81;;;0.89;100.00
26043;BME280;13818;52.156;5.382;2022-12-19T00:13:45;101490.81;;;0.89;100.00
26043;BME280;13818;52.156;5.382;2022-12-19T00:16:13;101502.16;;;0.86;100.00
26043;BME280;13818;52.156;5.382;2022-12-19T00:18:41;101497.78;;;0.84;100.00
26043;BME280;13818;52.156;5.382;2022-12-19T00:21:09;101490.81;;;0.87;100.00
26043;BME280;13818;52.156;5.382;2022-12-19T00:23:37;101504.78;;;0.89;100.00
26043;BME280;13818;52.156;5.382;2022-12-19T00:26:09;101498.69;;;0.92;100.00
26043;BME280;13818;52.156;5.382;2022-12-19T00:28:45;101502.19;;;0.94;100.00
26043;BME280;13818;52.156;5.382;2022-12-19T00:31:12;101483.81;;;0.92;100.00
26043;BME280;13818;52.156;5.382;2022-12-19T00:33:40;101458.44;;;0.94;100.00
26043;BME280;13818;52.156;5.382;2022-12-19T00:36:09;101468.94;;;0.94;100.00
26043;BME280;13818;52.156;5.382;2022-12-19T00:38:38;101454.97;;;1.00;100.00
26043;BME280;13818;52.156;5.382;2022-12-19T00:41:09;101469.00;;;1.02;100.00
26043;BME280;13818;52.156;5.382;2022-12-19T00:43:36;101477.72;;;1.04;100.00
26043;BME280;13818;52.156;5.382;2022-12-19T00:46:03;101470.75;;;1.08;100.00
26043;BME280;13818;52.156;5.382;2022-12-19T00:48:30;101455.88;;;1.10;100.00
26043;BME280;13818;52.156;5.382;2022-12-19T00:50:59;101450.63;;;1.11;100.00
26043;BME280;13818;52.156;5.382;2022-12-19T00:53:26;101434.88;;;1.13;100.00
26043;BME280;13818;52.156;5.382;2022-12-19T00:55:54;101421.75;;;1.18;100.00
26043;BME280;13818;52.156;5.382;2022-12-19T00:58:20;101427.00;;;1.18;100.00
26043;BME280;13818;52.156;5.382;2022-12-19T01:00:47;101414.75;;;1.24;100.00
26043;BME280;13818;52.156;5.382;2022-12-19T01:03:13;101414.75;;;1.24;100.00
26043;BME280;13818;52.156;5.382;2022-12-19T01:05:40;101413.03;;;1.26;100.00
26043;BME280;13818;52.156;5.382;2022-12-19T01:08:07;101413.91;;;1.30;100.00
26043;BME280;13818;52.156;5.382;2022-12-19T01:10:33;101404.25;;;1.30;100.00
26043;BME280;13818;52.156;5.382;2022-12-19T01:13:01;101411.25;;;1.28;100.00
26043;BME280;13818;52.156;5.382;2022-12-19T01:15:26;101413.00;;;1.31;100.00
26043;BME280;13818;52.156;5.382;2022-12-19T01:17:53;101410.41;;;1.34;100.00
26043;BME280;13818;52.156;5.382;2022-12-19T01:20:20;101413.03;;;1.33;100.00
26043;BME280;13818;52.156;5.382;2022-12-19T01:22:47;101419.16;;;1.30;100.00
26043;BME280;13818;52.156;5.382;2022-12-19T01:25:13;101420.91;;;1.33;100.00
26043;BME280;13818;52.156;5.382;2022-12-19T01:27:41;101413.03;;;1.33;100.00
26043;BME280;13818;52.156;5.382;2022-12-19T01:30:10;101403.41;;;1.39;100.00
26043;BME280;13818;52.156;5.382;2022-12-19T01:32:37;101397.28;;;1.39;100.00
26043;BME280;13818;52.156;5.382;2022-12-19T01:35:04;101404.28;;;1.41;100.00
26043;BME280;13818;52.156;5.382;2022-12-19T01:37:31;101392.88;;;1.41;100.00
26043;BME280;13818;52.156;5.382;2022-12-19T01:39:57;101384.13;;;1.42;100.00
26043;BME280;13818;52.156;5.382;2022-12-19T01:42:24;101381.50;;;1.42;100.00
26043;BME280;13818;52.156;5.382;2022-12-19T01:45:02;101392.91;;;1.45;100.00
26043;BME280;13818;52.156;5.382;2022-12-19T01:47:33;101386.75;;;1.50;100.00
26043;BME280;13818;52.156;5.382;2022-12-19T01:50:01;101389.38;;;1.51;100.00
26043;BME280;13818;52.156;5.382;2022-12-19T01:52:28;101377.13;;;1.53;100.00
26043;BME280;13818;52.156;5.382;2022-12-19T01:54:55;101377.13;;;1.55;100.00
26043;BME280;13818;52.156;5.382;2022-12-19T01:57:22;101377.13;;;1.61;100.00
26043;BME280;13818;52.156;5.382;2022-12-19T01:59:51;101362.25;;;1.61;100.00
26043;BME280;13818;52.156;5.382;2022-12-19T02:02:23;101364.88;;;1.63;100.00
26043;BME280;13818;52.156;5.382;2022-12-19T02:04:53;101349.97;;;1.68;100.00
26043;BME280;13818;52.156;5.382;2022-12-19T02:07:19;101344.72;;;1.74;100.00
26043;BME280;13818;52.156;5.382;2022-12-19T02:09:51;101349.94;;;1.76;100.00
26043;BME280;13818;52.156;5.382;2022-12-19T02:12:19;101355.19;;;1.79;100.00
26043;BME280;13818;52.156;5.382;2022-12-19T02:14:46;101362.22;;;1.85;100.00
26043;BME280;13818;52.156;5.382;2022-12-19T02:17:16;101356.06;;;1.86;100.00
26043;BME280;13818;52.156;5.382;2022-12-19T02:20:22;101333.28;;;1.89;100.00
26043;BME280;13818;52.156;5.382;2022-12-19T02:23:11;101343.78;;;1.94;100.00
26043;BME280;13818;52.156;5.382;2022-12-19T02:25:58;101325.34;;;2.02;100.00
26043;BME280;13818;52.156;5.382;2022-12-19T02:28:34;101320.06;;;2.08;100.00
26043;BME280;13818;52.156;5.382;2022-12-19T02:31:12;101325.31;;;2.14;100.00
26043;BME280;13818;52.156;5.382;2022-12-19T02:33:43;101320.06;;;2.17;100.00
26043;BME280;13818;52.156;5.382;2022-12-19T02:36:15;101315.63;;;2.27;100.00
26043;BME280;13818;52.156;5.382;2022-12-19T02:38:47;101315.59;;;2.33;100.00
26043;BME280;13818;52.156;5.382;2022-12-19T02:41:21;101303.31;;;2.34;100.00
26043;BME280;13818;52.156;5.382;2022-12-19T02:43:50;101306.78;;;2.42;100.00
26043;BME280;13818;52.156;5.382;2022-12-19T02:46:19;101296.28;;;2.43;100.00
26043;BME280;13818;52.156;5.382;2022-12-19T02:48:46;101294.47;;;2.52;100.00
26043;BME280;13818;52.156;5.382;2022-12-19T02:51:12;101284.81;;;2.54;100.00
26043;BME280;13818;52.156;5.382;2022-12-19T02:53:39;101265.47;;;2.58;100.00
26043;BME280;13818;52.156;5.382;2022-12-19T02:56:31;101268.97;;;2.60;100.00
26043;BME280;13818;52.156;5.382;2022-12-19T02:59:13;101273.34;;;2.64;100.00
26043;BME280;13818;52.156;5.382;2022-12-19T03:01:48;101278.56;;;2.67;100.00
26043;BME280;13818;52.156;5.382;2022-12-19T03:04:29;101275.88;;;2.73;100.00
26043;BME280;13818;52.156;5.382;2022-12-19T03:07:01;101274.13;;;2.77;100.00
26043;BME280;13818;52.156;5.382;2022-12-19T03:09:36;101273.25;;;2.76;100.00
26043;BME280;13818;52.156;5.382;2022-12-19T03:12:08;101275.88;;;2.78;100.00
26043;BME280;13818;52.156;5.382;2022-12-19T03:14:39;101268.84;;;2.82;100.00
26043;BME280;13818;52.156;5.382;2022-12-19T03:17:07;101270.59;;;2.81;100.00
26043;BME280;13818;52.156;5.382;2022-12-19T03:19:35;101267.06;;;2.85;100.00
26043;BME280;13818;52.156;5.382;2022-12-19T03:22:03;101251.19;;;2.90;100.00
26043;BME280;13818;52.156;5.382;2022-12-19T03:24:30;101250.34;;;2.88;100.00
26043;BME280;13818;52.156;5.382;2022-12-19T03:27:00;101260.81;;;2.97;100.00
26043;BME280;13818;52.156;5.382;2022-12-19T03:29:31;101254.63;;;3.03;100.00
26043;BME280;13818;52.156;5.382;2022-12-19T03:32:00;101253.72;;;3.05;100.00
26043;BME280;13818;52.156;5.382;2022-12-19T03:34:30;101254.63;;;3.03;100.00
26043;BME280;13818;52.156;5.382;2022-12-19T03:37:01;101251.94;;;3.07;100.00
26043;BME280;13818;52.156;5.382;2022-12-19T03:39:30;101248.44;;;3.08;100.00
26043;BME280;13818;52.156;5.382;2022-12-19T03:41:58;101243.16;;;3.08;100.00
26043;BME280;13818;52.156;5.382;2022-12-19T03:44:43;101240.50;;;3.12;100.00
26043;BME280;13818;52.156;5.382;2022-12-19T03:47:19;101246.63;;;3.17;100.00
26043;BME280;13818;52.156;5.382;2022-12-19T03:49:49;101229.88;;;3.21;100.00
26043;BME280;13818;52.156;5.382;2022-12-19T03:52:23;101231.66;;;3.20;100.00
26043;BME280;13818;52.156;5.382;2022-12-19T03:54:55;101222.81;;;3.24;100.00
26043;BME280;13818;52.156;5.382;2022-12-19T03:57:28;101225.41;;;3.31;100.00
26043;BME280;13818;52.156;5.382;2022-12-19T04:00:01;101228.03;;;3.31;100.00
26043;BME280;13818;52.156;5.382;2022-12-19T04:02:28;101211.34;;;3.32;100.00
26043;BME280;13818;52.156;5.382;2022-12-19T04:04:59;101209.53;;;3.35;100.00
26043;BME280;13818;52.156;5.382;2022-12-19T04:07:27;101206.84;;;3.41;100.00
26043;BME280;13818;52.156;5.382;2022-12-19T04:09:54;101220.81;;;3.47;100.00
26043;BME280;13818;52.156;5.382;2022-12-19T04:12:27;101225.25;;;3.46;100.00
26043;BME280;13818;52.156;5.382;2022-12-19T04:14:56;101209.38;;;3.51;100.00
26043;BME280;13818;52.156;5.382;2022-12-19T04:17:28;101204.97;;;3.54;100.00
26043;BME280;13818;52.156;5.382;2022-12-19T04:20:01;101198.78;;;3.54;100.00
26043;BME280;13818;52.156;5.382;2022-12-19T04:22:31;101203.22;;;3.53;100.00
26043;BME280;13818;52.156;5.382;2022-12-19T04:25:06;101204.94;;;3.53;100.00
26043;BME280;13818;52.156;5.382;2022-12-19T04:27:35;101198.78;;;3.57;100.00
26043;BME280;13818;52.156;5.382;2022-12-19T04:30:08;101215.44;;;3.59;100.00
26043;BME280;13818;52.156;5.382;2022-12-19T04:32:35;101218.06;;;3.61;100.00
26043;BME280;13818;52.156;5.382;2022-12-19T04:35:04;101196.94;;;3.64;100.00
26043;BME280;13818;52.156;5.382;2022-12-19T04:37:31;101203.97;;;3.65;100.00
26043;BME280;13818;52.156;5.382;2022-12-19T04:39:57;101196.88;;;3.67;100.00
26043;BME280;13818;52.156;5.382;2022-12-19T04:42:24;101202.06;;;3.76;100.00
26043;BME280;13818;52.156;5.382;2022-12-19T04:44:50;101205.56;;;3.77;100.00
26043;BME280;13818;52.156;5.382;2022-12-19T04:47:17;101190.59;;;3.79;100.00
26043;BME280;13818;52.156;5.382;2022-12-19T04:49:43;101201.97;;;3.84;100.00
26043;BME280;13818;52.156;5.382;2022-12-19T04:52:11;101191.38;;;3.88;100.00
26043;BME280;13818;52.156;5.382;2022-12-19T04:54:38;101192.19;;;3.94;100.00
26043;BME280;13818;52.156;5.382;2022-12-19T04:57:04;101189.44;;;4.01;100.00
26043;BME280;13818;52.156;5.382;2022-12-19T04:59:31;101191.09;;;4.09;100.00
26043;BME280;13818;52.156;5.382;2022-12-19T05:01:58;101193.72;;;4.10;100.00
26043;BME280;13818;52.156;5.382;2022-12-19T05:04:24;101176.94;;;4.14;100.00
26043;BME280;13818;52.156;5.382;2022-12-19T05:06:51;101183.84;;;4.23;100.00
26043;BME280;13818;52.156;5.382;2022-12-19T05:09:19;101183.78;;;4.29;100.00
26043;BME280;13818;52.156;5.382;2022-12-19T05:11:45;101180.25;;;4.30;100.00
26043;BME280;13818;52.156;5.382;2022-12-19T05:14:12;101181.06;;;4.34;100.00
26043;BME280;13818;52.156;5.382;2022-12-19T05:16:39;101179.28;;;4.34;100.00
26043;BME280;13818;52.156;5.382;2022-12-19T05:19:06;101182.78;;;4.35;100.00
26043;BME280;13818;52.156;5.382;2022-12-19T05:21:32;101173.06;;;4.40;100.00
26043;BME280;13818;52.156;5.382;2022-12-19T05:23:59;101176.44;;;4.48;100.00
26043;BME280;13818;52.156;5.382;2022-12-19T05:26:26;101176.50;;;4.45;100.00
26043;BME280;13818;52.156;5.382;2022-12-19T05:28:53;101172.84;;;4.54;100.00
26043;BME280;13818;52.156;5.382;2022-12-19T05:31:20;101172.75;;;4.59;100.00
26043;BME280;13818;52.156;5.382;2022-12-19T05:33:47;101173.56;;;4.64;100.00
26043;BME280;13818;52.156;5.382;2022-12-19T05:36:15;101169.19;;;4.63;100.00
26043;BME280;13818;52.156;5.382;2022-12-19T05:38:42;101168.22;;;4.68;100.00
26043;BME280;13818;52.156;5.382;2022-12-19T05:41:11;101165.47;;;4.75;100.00
26043;BME280;13818;52.156;5.382;2022-12-19T05:43:42;101165.44;;;4.76;100.00
26043;BME280;13818;52.156;5.382;2022-12-19T05:46:08;101165.44;;;4.76;100.00
26043;BME280;13818;52.156;5.382;2022-12-19T05:48:36;101167.06;;;4.85;100.00
26043;BME280;13818;52.156;5.382;2022-12-19T05:51:03;101165.16;;;4.93;100.00
26043;BME280;13818;52.156;5.382;2022-12-19T05:53:30;101167.78;;;4.95;100.00
26043;BME280;13818;52.156;5.382;2022-12-19T05:56:02;101173.91;;;4.95;100.00
26043;BME280;13818;52.156;5.382;2022-12-19T05:58:29;101162.16;;;5.12;100.00
26043;BME280;13818;52.156;5.382;2022-12-19T06:01:01;101171.81;;;5.16;100.00
26043;BME280;13818;52.156;5.382;2022-12-19T06:03:28;101162.09;;;5.16;100.00
26043;BME280;13818;52.156;5.382;2022-12-19T06:05:54;101167.19;;;5.26;100.00
26043;BME280;13818;52.156;5.382;2022-12-19T06:08:21;101181.22;;;5.31;100.00
26043;BME280;13818;52.156;5.382;2022-12-19T06:10:48;101182.91;;;5.35;100.00
26043;BME280;13818;52.156;5.382;2022-12-19T06:13:14;101181.00;;;5.42;100.00
26043;BME280;13818;52.156;5.382;2022-12-19T06:15:41;101179.25;;;5.42;100.00
26043;BME280;13818;52.156;5.382;2022-12-19T06:18:09;101183.53;;;5.48;100.00
26043;BME280;13818;52.156;5.382;2022-12-19T06:20:35;101176.34;;;5.56;100.00
26043;BME280;13818;52.156;5.382;2022-12-19T06:23:01;101163.84;;;5.63;100.00
26043;BME280;13818;52.156;5.382;2022-12-19T06:25:28;101171.75;;;5.64;100.00
26043;BME280;13818;52.156;5.382;2022-12-19T06:27:54;101154.91;;;5.68;100.00
26043;BME280;13818;52.156;5.382;2022-12-19T06:30:20;101164.50;;;5.74;100.00
26043;BME280;13818;52.156;5.382;2022-12-19T06:32:47;101160.06;;;5.76;100.00
26043;BME280;13818;52.156;5.382;2022-12-19T06:35:15;101180.94;;;5.89;100.00
26043;BME280;13818;52.156;5.382;2022-12-19T06:37:41;101173.00;;;5.90;100.00
26043;BME280;13818;52.156;5.382;2022-12-19T06:40:09;101169.41;;;5.91;100.00
26043;BME280;13818;52.156;5.382;2022-12-19T06:42:57;101165.72;;;6.01;100.00
26043;BME280;13818;52.156;5.382;2022-12-19T06:45:22;101178.06;;;6.01;100.00
26043;BME280;13818;52.156;5.382;2022-12-19T06:47:48;101171.78;;;6.05;100.00
26043;BME280;13818;52.156;5.382;2022-12-19T06:50:16;101172.69;;;6.06;100.00
26043;BME280;13818;52.156;5.382;2022-12-19T06:52:43;101167.16;;;6.15;100.00
26043;BME280;13818;52.156;5.382;2022-12-19T06:55:09;101177.66;;;6.19;100.00
26043;BME280;13818;52.156;5.382;2022-12-19T06:57:36;101182.00;;;6.22;100.00
26043;BME280;13818;52.156;5.382;2022-12-19T07:00:11;101153.59;;;6.30;100.00
26043;BME280;13818;52.156;5.382;2022-12-19T07:02:38;101174.75;;;6.32;100.00
26043;BME280;13818;52.156;5.382;2022-12-19T07:05:08;101156.97;;;6.37;100.00
26043;BME280;13818;52.156;5.382;2022-12-19T07:07:37;101147.19;;;6.39;100.00
26043;BME280;13818;52.156;5.382;2022-12-19T07:10:05;101170.81;;;6.48;100.00
26043;BME280;13818;52.156;5.382;2022-12-19T07:12:32;101168.97;;;6.52;100.00
26043;BME280;13818;52.156;5.382;2022-12-19T07:14:59;101183.06;;;6.53;100.00
26043;BME280;13818;52.156;5.382;2022-12-19T07:17:27;101194.44;;;6.58;100.00
26043;BME280;13818;52.156;5.382;2022-12-19T07:19:55;101170.53;;;6.61;100.00
26043;BME280;13818;52.156;5.382;2022-12-19T07:22:23;101180.84;;;6.72;100.00
26043;BME280;13818;52.156;5.382;2022-12-19T07:24:53;101176.44;;;6.72;100.00
26043;BME280;13818;52.156;5.382;2022-12-19T07:27:21;101178.91;;;6.80;100.00
26043;BME280;13818;52.156;5.382;2022-12-19T07:29:48;101185.91;;;6.82;100.00
26043;BME280;13818;52.156;5.382;2022-12-19T07:32:14;101194.69;;;6.83;100.00
26043;BME280;13818;52.156;5.382;2022-12-19T07:34:40;101176.03;;;6.88;100.00
26043;BME280;13818;52.156;5.382;2022-12-19T07:37:07;101195.44;;;6.88;100.00
26043;BME280;13818;52.156;5.382;2022-12-19T07:39:33;101193.69;;;6.89;100.00
26043;BME280;13818;52.156;5.382;2022-12-19T07:42:01;101181.19;;;6.94;100.00
26043;BME280;13818;52.156;5.382;2022-12-19T07:44:27;101190.88;;;6.95;100.00
26043;BME280;13818;52.156;5.382;2022-12-19T07:46:54;101194.34;;;6.98;100.00
26043;BME280;13818;52.156;5.382;2022-12-19T07:49:20;101194.28;;;7.00;100.00
26043;BME280;13818;52.156;5.382;2022-12-19T07:51:47;101209.25;;;7.03;100.00
26043;BME280;13818;52.156;5.382;2022-12-19T07:54:13;101194.25;;;7.02;100.00
26043;BME280;13818;52.156;5.382;2022-12-19T07:56:40;101199.34;;;7.09;100.00
26043;BME280;13818;52.156;5.382;2022-12-19T07:59:08;101196.66;;;7.11;100.00
26043;BME280;13818;52.156;5.382;2022-12-19T08:01:34;101193.88;;;7.15;100.00
26043;BME280;13818;52.156;5.382;2022-12-19T08:04:01;101200.97;;;7.15;100.00
26043;BME280;13818;52.156;5.382;2022-12-19T08:06:27;101200.03;;;7.18;100.00
26043;BME280;13818;52.156;5.382;2022-12-19T08:08:53;101207.94;;;7.19;100.00
26043;BME280;13818;52.156;5.382;2022-12-19T08:11:21;101220.25;;;7.22;100.00
26043;BME280;13818;52.156;5.382;2022-12-19T08:13:51;101196.16;;;7.29;100.00
26043;BME280;13818;52.156;5.382;2022-12-19T08:16:20;101216.53;;;7.29;100.00
26043;BME280;13818;52.156;5.382;2022-12-19T08:18:46;101214.66;;;7.32;100.00
26043;BME280;13818;52.156;5.382;2022-12-19T08:21:13;101216.22;;;7.40;100.00
26043;BME280;13818;52.156;5.382;2022-12-19T08:23:39;101221.47;;;7.43;100.00
26043;BME280;13818;52.156;5.382;2022-12-19T08:26:09;101213.50;;;7.43;100.00
26043;BME280;13818;52.156;5.382;2022-12-19T08:28:36;101215.09;;;7.48;100.00
26043;BME280;13818;52.156;5.382;2022-12-19T08:31:05;101214.94;;;7.55;100.00
26043;BME280;13818;52.156;5.382;2022-12-19T08:33:33;101221.19;;;7.52;100.00
26043;BME280;13818;52.156;5.382;2022-12-19T08:36:02;101212.34;;;7.53;100.00
26043;BME280;13818;52.156;5.382;2022-12-19T08:38:29;101226.44;;;7.54;100.00
26043;BME280;13818;52.156;5.382;2022-12-19T08:40:55;101210.59;;;7.52;100.00
26043;BME280;13818;52.156;5.382;2022-12-19T08:43:21;101224.53;;;7.59;100.00
26043;BME280;13818;52.156;5.382;2022-12-19T08:45:48;101228.25;;;7.53;100.00
26043;BME280;13818;52.156;5.382;2022-12-19T08:48:15;101228.13;;;7.58;100.00
26043;BME280;13818;52.156;5.382;2022-12-19T08:50:49;101234.34;;;7.57;100.00
26043;BME280;13818;52.156;5.382;2022-12-19T08:53:16;101226.25;;;7.61;100.00
26043;BME280;13818;52.156;5.382;2022-12-19T08:55:42;101235.03;;;7.63;100.00
26043;BME280;13818;52.156;5.382;2022-12-19T08:58:09;101226.84;;;7.71;100.00
26043;BME280;13818;52.156;5.382;2022-12-19T09:00:36;101225.13;;;7.70;100.00
26043;BME280;13818;52.156;5.382;2022-12-19T09:03:03;101230.41;;;7.70;100.00
26043;BME280;13818;52.156;5.382;2022-12-19T09:05:29;101224.47;;;7.62;100.00
26043;BME280;13818;52.156;5.382;2022-12-19T09:07:57;101219.97;;;7.65;100.00
26043;BME280;13818;52.156;5.382;2022-12-19T09:10:25;101225.09;;;7.72;100.00
26043;BME280;13818;52.156;5.382;2022-12-19T09:12:51;101231.13;;;7.77;100.00
26043;BME280;13818;52.156;5.382;2022-12-19T09:15:17;101230.22;;;7.78;100.00
26043;BME280;13818;52.156;5.382;2022-12-19T09:17:44;101223.97;;;7.79;100.00
26043;BME280;13818;52.156;5.382;2022-12-19T09:20:10;101241.78;;;7.75;100.00
26043;BME280;13818;52.156;5.382;2022-12-19T09:22:37;101244.31;;;7.80;100.00
26043;BME280;13818;52.156;5.382;2022-12-19T09:25:06;101244.09;;;7.88;100.00
26043;BME280;13818;52.156;5.382;2022-12-19T09:27:32;101244.91;;;7.90;100.00
26043;BME280;13818;52.156;5.382;2022-12-19T09:29:59;101251.03;;;7.93;100.00
26043;BME280;13818;52.156;5.382;2022-12-19T09:32:26;101254.69;;;7.89;100.00
26043;BME280;13818;52.156;5.382;2022-12-19T09:34:52;101246.66;;;7.91;100.00
26043;BME280;13818;52.156;5.382;2022-12-19T09:37:19;101244.66;;;7.99;100.00
26043;BME280;13818;52.156;5.382;2022-12-19T09:39:46;101249.50;;;7.85;100.00
26043;BME280;13818;52.156;5.382;2022-12-19T09:42:56;101251.13;;;7.89;100.00
26043;BME280;13818;52.156;5.382;2022-12-19T09:45:39;101250.19;;;7.91;100.00
26043;BME280;13818;52.156;5.382;2022-12-19T09:48:11;101256.06;;;8.03;100.00
26043;BME280;13818;52.156;5.382;2022-12-19T09:50:45;101241.97;;;8.01;100.00
26043;BME280;13818;52.156;5.382;2022-12-19T09:53:18;101253.22;;;8.09;100.00
26043;BME280;13818;52.156;5.382;2022-12-19T09:55:48;101249.72;;;8.08;100.00
26043;BME280;13818;52.156;5.382;2022-12-19T09:58:26;101248.81;;;8.09;100.00
26043;BME280;13818;52.156;5.382;2022-12-19T10:00:57;101249.00;;;8.02;100.00
26043;BME280;13818;52.156;5.382;2022-12-19T10:03:27;101250.56;;;8.09;100.00
26043;BME280;13818;52.156;5.382;2022-12-19T10:05:59;101259.38;;;8.11;100.00
26043;BME280;13818;52.156;5.382;2022-12-19T10:08:31;101250.38;;;8.15;100.00
26043;BME280;13818;52.156;5.382;2022-12-19T10:11:04;101247.59;;;8.20;100.00
26043;BME280;13818;52.156;5.382;2022-12-19T10:13:48;101247.44;;;8.24;100.00
26043;BME280;13818;52.156;5.382;2022-12-19T10:16:25;101242.88;;;8.29;100.00
26043;BME280;13818;52.156;5.382;2022-12-19T10:18:55;101242.69;;;8.36;100.00
26043;BME280;13818;52.156;5.382;2022-12-19T10:21:32;101238.31;;;8.35;100.00
26043;BME280;13818;52.156;5.382;2022-12-19T10:26:53;101234.50;;;8.43;100.00
26043;BME280;13818;52.156;5.382;2022-12-19T10:29:43;101242.09;;;8.56;100.00
26043;BME280;13818;52.156;5.382;2022-12-19T10:32:17;101243.03;;;8.55;100.00
26043;BME280;13818;52.156;5.382;2022-12-19T10:34:47;101242.75;;;8.64;100.00
26043;BME280;13818;52.156;5.382;2022-12-19T10:37:18;101242.69;;;8.66;100.00
26043;BME280;13818;52.156;5.382;2022-12-19T10:40:02;101239.97;;;8.67;100.00
26043;BME280;13818;52.156;5.382;2022-12-19T10:42:35;101230.03;;;8.74;100.00
26043;BME280;13818;52.156;5.382;2022-12-19T10:45:13;101232.19;;;8.61;100.00
26043;BME280;13818;52.156;5.382;2022-12-19T10:47:40;101230.19;;;8.69;100.00
26043;BME280;13818;52.156;5.382;2022-12-19T10:50:10;101229.16;;;8.73;100.00
26043;BME280;13818;52.156;5.382;2022-12-19T10:52:49;101236.06;;;8.79;100.00
26043;BME280;13818;52.156;5.382;2022-12-19T10:55:36;101237.94;;;8.75;100.00
26043;BME280;13818;52.156;5.382;2022-12-19T10:58:25;101224.72;;;8.74;100.00
26043;BME280;13818;52.156;5.382;2022-12-19T11:01:00;101238.63;;;8.82;100.00
26043;BME280;13818;52.156;5.382;2022-12-19T11:03:28;101237.69;;;8.83;100.00
26043;BME280;13818;52.156;5.382;2022-12-19T11:05:55;101245.47;;;8.89;100.00
26043;BME280;13818;52.156;5.382;2022-12-19T11:08:23;101227.72;;;8.90;100.00
26043;BME280;13818;52.156;5.382;2022-12-19T11:10:52;101245.63;;;8.85;100.00
26043;BME280;13818;52.156;5.382;2022-12-19T11:13:24;101239.31;;;8.89;100.00
26043;BME280;13818;52.156;5.382;2022-12-19T11:15:53;101227.84;;;8.87;100.00
26043;BME280;13818;52.156;5.382;2022-12-19T11:18:22;101231.16;;;8.93;100.00
26043;BME280;13818;52.156;5.382;2022-12-19T11:20:54;101214.41;;;8.91;100.00
26043;BME280;13818;52.156;5.382;2022-12-19T11:23:22;101227.59;;;8.94;100.00
26043;BME280;13818;52.156;5.382;2022-12-19T11:25:56;101221.94;;;9.04;100.00
26043;BME280;13818;52.156;5.382;2022-12-19T11:28:26;101214.91;;;9.03;100.00
26043;BME280;13818;52.156;5.382;2022-12-19T11:31:14;101201.44;;;9.07;100.00
26043;BME280;13818;52.156;5.382;2022-12-19T11:33:44;101208.84;;;8.98;100.00
26043;BME280;13818;52.156;5.382;2022-12-19T11:36:27;101210.50;;;9.02;100.00
26043;BME280;13818;52.156;5.382;2022-12-19T11:38:56;101214.03;;;9.02;100.00
26043;BME280;13818;52.156;5.382;2022-12-19T11:41:29;101217.47;;;9.06;100.00
26043;BME280;13818;52.156;5.382;2022-12-19T11:43:59;101221.03;;;9.05;100.00
26043;BME280;13818;52.156;5.382;2022-12-19T11:46:33;101221.81;;;9.08;100.00
26043;BME280;13818;52.156;5.382;2022-12-19T11:49:10;101216.22;;;9.16;100.00
26043;BME280;13818;52.156;5.382;2022-12-19T11:51:50;101217.25;;;9.12;100.00
26043;BME280;13818;52.156;5.382;2022-12-19T11:54:21;101224.25;;;9.15;100.00
26043;BME280;13818;52.156;5.382;2022-12-19T11:56:50;101221.66;;;9.13;100.00
26043;BME280;13818;52.156;5.382;2022-12-19T11:59:18;101227.19;;;9.07;100.00
26043;BME280;13818;52.156;5.382;2022-12-19T12:02:05;101217.13;;;9.15;100.00
26043;BME280;13818;52.156;5.382;2022-12-19T12:05:04;101214.66;;;9.10;100.00
26043;BME280;13818;52.156;5.382;2022-12-19T12:07:35;101187.94;;;9.14;100.00
26043;BME280;13818;52.156;5.382;2022-12-19T12:10:12;101215.16;;;9.22;100.00
26043;BME280;13818;52.156;5.382;2022-12-19T12:12:47;101208.25;;;9.16;100.00
26043;BME280;13818;52.156;5.382;2022-12-19T12:15:30;101207.94;;;9.25;100.00
26043;BME280;13818;52.156;5.382;2022-12-19T12:18:07;101194.72;;;9.22;100.00
26043;BME280;13818;52.156;5.382;2022-12-19T12:20:46;101193.59;;;9.30;100.00
26043;BME280;13818;52.156;5.382;2022-12-19T12:23:23;101203.22;;;9.34;100.00
26043;BME280;13818;52.156;5.382;2022-12-19T12:25:57;101192.69;;;9.31;100.00
26043;BME280;13818;52.156;5.382;2022-12-19T12:28:47;101183.59;;;9.36;100.00
26043;BME280;13818;52.156;5.382;2022-12-19T12:31:27;101176.44;;;9.38;100.00
26043;BME280;13818;52.156;5.382;2022-12-19T12:34:03;101190.66;;;9.37;100.00
26043;BME280;13818;52.156;5.382;2022-12-19T12:36:41;101178.91;;;9.44;100.00
26043;BME280;13818;52.156;5.382;2022-12-19T12:39:14;101172.59;;;9.47;100.00
26043;BME280;13818;52.156;5.382;2022-12-19T12:41:53;101170.94;;;9.43;100.00
26043;BME280;13818;52.156;5.382;2022-12-19T12:44:33;101168.19;;;9.46;100.00
26043;BME280;13818;52.156;5.382;2022-12-19T12:47:07;101155.69;;;9.48;100.00
26043;BME280;13818;52.156;5.382;2022-12-19T12:49:39;101154.75;;;9.49;100.00
26043;BME280;13818;52.156;5.382;2022-12-19T12:52:13;101156.50;;;9.50;100.00
26043;BME280;13818;52.156;5.382;2022-12-19T12:54:44;101148.41;;;9.53;100.00
26043;BME280;13818;52.156;5.382;2022-12-19T12:57:20;101157.41;;;9.49;100.00
26043;BME280;13818;52.156;5.382;2022-12-19T13:00:14;101139.16;;;9.64;100.00
26043;BME280;13818;52.156;5.382;2022-12-19T13:02:44;101139.00;;;9.68;100.00
26043;BME280;13818;52.156;5.382;2022-12-19T13:05:24;101130.81;;;9.73;100.00
26043;BME280;13818;52.156;5.382;2022-12-19T13:07:56;101145.72;;;9.79;100.00
26043;BME280;13818;52.156;5.382;2022-12-19T13:10:24;101128.09;;;9.74;100.00